Latest Weather Observations for Cape Jaffa

IDS60801

Issued at 8:11 pm CST Thursday 24 September 2020 (issued every 10 minutes, with the page automatically refreshed every 10 minutes)

About weather observations | Map of weather stations | Latest weather observations for SA | Other Formats
Station Details ID: 026095 Name: THE LIMESTONE Lat: -36.97 Lon: 139.72 Height: 17.0 m
Data from the previous 72 hours. | See also: Recent months at Cape Jaffa
Date/Time
CST
Temp
°C
App
Temp
°C
Dew
Point
°C
Rel
Hum
%
Delta-T
°C
Wind Press
QNH
hPa
Press
MSL
hPa
Rain since
9am
mm
Dir  Spd
km/h
Gust
km/h
Spd
kts
Gust
kts
24/08:00pm 8.8 5.4 5.9 82 1.3 WSW 13 17 7 9 1006.8 1006.8 9.0
24/07:30pm 8.3 4.4 5.4 82 1.3 WSW 15 20 8 11 1006.9 1006.9 9.0
24/07:00pm 7.8 4.2 5.1 83 1.2 SW 13 19 7 10 1006.6 1006.6 9.0
24/06:30pm 8.4 2.1 5.9 84 1.1 WSW 28 39 15 21 1006.7 1006.7 8.8
24/06:00pm 9.4 3.1 5.9 79 1.6 WSW 28 37 15 20 1006.2 1006.2 8.4
24/05:30pm 9.7 4.4 6.6 81 1.5 WSW 24 37 13 20 1006.0 1006.0 8.4
24/05:00pm 9.8 5.0 7.2 84 1.2 WSW 22 32 12 17 1005.9 1005.9 8.4
24/04:30pm 9.9 5.5 7.3 84 1.2 W 20 30 11 16 1005.8 1005.8 8.4
24/04:00pm 9.8 4.8 7.9 88 0.9 WSW 24 35 13 19 1005.8 1005.8 8.2
24/03:30pm 10.4 7.9 8.0 85 1.2 WNW 11 15 6 8 1005.8 1005.8 8.0
24/03:00pm 8.8 5.1 6.4 85 1.1 W 15 28 8 15 1006.2 1006.2 8.0
24/02:30pm 10.6 5.5 7.8 83 1.4 NW 24 33 13 18 1006.8 1006.8 5.8
24/02:00pm 10.0 4.6 7.8 86 1.1 NW 26 37 14 20 1007.5 1007.5 5.8
24/01:30pm 8.6 2.5 6.6 87 0.9 W 28 43 15 23 1008.1 1008.1 4.4
24/01:00pm 10.1 4.2 7.3 83 1.3 NNW 28 43 15 23 1008.5 1008.5 1.6
24/12:53pm 9.5 2.3 5.9 78 1.7 NW 33 46 18 25 1008.8 1008.8 1.4
24/12:39pm 10.8 3.6 6.0 72 2.2 NW 33 57 18 31 1009.1 1009.1 1.2
24/12:37pm 11.3 4.1 6.0 70 2.5 NW 33 57 18 31 1009.0 1009.0 1.2
24/12:36pm 12.0 5.0 6.7 70 2.5 NW 33 57 18 31 1009.1 1009.1 1.2
24/12:30pm 12.8 6.1 7.5 70 2.6 NNW 32 41 17 22 1009.0 1009.0 1.2
24/12:00pm 13.3 6.6 7.3 67 2.9 NW 32 43 17 23 1009.6 1009.6 1.2
24/11:30am 12.1 6.7 8.2 77 1.9 NNW 26 35 14 19 1010.4 1010.4 1.2
24/11:00am 11.3 5.8 7.4 77 1.9 NW 26 35 14 19 1011.2 1011.2 1.0
24/10:30am 11.4 5.6 8.1 80 1.6 NW 28 37 15 20 1011.7 1011.7 1.0
24/10:00am 10.5 7.1 7.6 82 1.4 NW 15 20 8 11 1012.5 1012.5 1.0
24/09:30am 10.4 8.2 7.8 84 1.3 NW 9 17 5 9 1013.0 1013.0 1.0
24/09:00am 9.8 4.9 6.7 81 1.5 NW 22 33 12 18 1013.1 1013.1 3.0
24/08:30am 11.9 7.8 6.0 67 2.8 WNW 17 24 9 13 1013.2 1013.2 2.2
24/08:00am 11.4 7.6 7.5 77 1.9 NNW 17 22 9 12 1013.3 1013.3 2.2
24/07:30am 10.9 7.7 6.8 76 1.9 WNW 13 17 7 9 1013.6 1013.6 2.2
24/07:00am 10.7 6.5 5.5 70 2.4 WNW 17 24 9 13 1013.8 1013.8 2.2
24/06:30am 10.7 6.1 5.7 71 2.3 W 19 26 10 14 1013.9 1013.9 2.2
24/06:00am 9.3 5.4 5.3 76 1.8 W 15 20 8 11 1014.0 1014.0 2.2
24/05:30am 9.2 5.1 6.1 81 1.4 NW 17 22 9 12 1014.1 1014.1 2.2
24/05:00am 9.3 5.7 5.1 75 1.9 WNW 13 19 7 10 1014.2 1014.2 2.2
24/04:30am 9.0 4.6 4.8 75 1.9 W 17 22 9 12 1014.4 1014.4 2.2
24/04:00am 8.8 5.1 4.6 75 1.9 W 13 19 7 10 1014.7 1014.7 2.2
24/03:30am 9.5 3.6 5.9 78 1.6 W 26 37 14 20 1015.0 1015.0 2.2
24/03:00am 8.8 3.9 2.2 63 2.8 WSW 17 22 9 12 1015.0 1015.0 2.2
24/02:30am 9.3 3.6 3.1 65 2.7 WSW 22 30 12 16 1015.3 1015.3 2.2
24/02:00am 9.3 4.7 5.7 78 1.6 WSW 19 28 10 15 1015.7 1015.7 2.2
24/01:30am 10.3 5.5 4.9 69 2.4 WSW 19 30 10 16 1016.0 1016.0 2.0
24/01:00am 9.8 4.7 4.0 67 2.6 WSW 20 28 11 15 1016.4 1016.4 2.0
24/12:30am 9.4 4.9 4.2 70 2.3 WSW 17 22 9 12 1016.7 1016.7 2.0
24/12:00am 10.0 5.3 5.2 72 2.2 WSW 19 26 10 14 1017.0 1017.0 2.0
 
Date/Time
CST
Temp
°C
App
Temp
°C
Dew
Point
°C
Rel
Hum
%
Delta-T
°C
Wind Press
QNH
hPa
Press
MSL
hPa
Rain since
9am
mm
Dir  Spd
km/h
Gust
km/h
Spd
kts
Gust
kts
23/11:30pm 10.0 3.8 4.4 68 2.5 WSW 26 33 14 18 1017.3 1017.3 2.0
23/11:00pm 9.9 3.8 4.7 70 2.3 WSW 26 33 14 18 1017.6 1017.6 2.0
23/10:30pm 9.2 2.3 6.3 82 1.3 SW 32 43 17 23 1017.8 1017.8 2.0
23/10:19pm 9.9 3.5 6.8 81 1.5 WSW 30 46 16 25 1017.8 1017.8 2.0
23/10:00pm 10.0 5.6 5.0 71 2.3 WSW 17 22 9 12 1018.0 1018.0 2.0
23/09:30pm 9.7 2.2 6.1 78 1.7 WSW 35 46 19 25 1018.2 1018.2 2.0
23/09:00pm 9.6 2.9 5.6 76 1.8 WSW 30 43 16 23 1018.3 1018.3 2.0
23/08:30pm 9.8 3.7 4.8 71 2.2 SW 26 35 14 19 1018.1 1018.1 2.0
23/08:00pm 10.3 3.7 6.1 75 1.9 SW 30 41 16 22 1018.1 1018.1 2.0
23/07:30pm 10.0 4.4 5.2 72 2.2 WSW 24 32 13 17 1018.0 1018.0 2.0
23/07:00pm 10.0 4.1 5.6 74 2.0 WSW 26 35 14 19 1017.8 1017.8 2.0
23/06:30pm 10.1 4.0 4.9 70 2.3 WSW 26 33 14 18 1017.5 1017.5 2.0
23/06:00pm 10.3 4.0 5.9 74 2.0 SW 28 41 15 22 1017.4 1017.4 2.0
23/05:30pm 10.8 3.9 4.5 65 2.8 WSW 30 37 16 20 1017.1 1017.1 2.0
23/05:00pm 11.6 4.9 5.5 66 2.8 WSW 30 39 16 21 1016.9 1016.9 2.0
23/04:30pm 11.7 4.0 5.3 65 2.9 WSW 35 43 19 23 1016.7 1016.7 2.0
23/04:00pm 11.5 5.9 7.0 74 2.1 WSW 26 35 14 19 1016.6 1016.6 2.0
23/03:36pm 11.7 5.0 7.4 75 2.1 WSW 32 50 17 27 1016.4 1016.4 2.0
23/03:30pm 11.5 5.0 6.6 72 2.3 SW 30 39 16 21 1016.4 1016.4 2.0
23/03:00pm 11.1 4.2 7.4 78 1.8 SW 33 46 18 25 1016.3 1016.3 2.0
23/02:30pm 12.3 6.8 7.4 72 2.4 SW 26 37 14 20 1016.1 1016.1 1.8
23/02:00pm 12.4 6.4 8.5 77 1.9 SW 30 43 16 23 1016.1 1016.1 1.8
23/01:30pm 11.6 7.2 9.0 84 1.3 SW 22 32 12 17 1016.2 1016.2 1.8
23/01:10pm 11.2 5.6 8.8 85 1.2 SW 28 48 15 26 1016.1 1016.1 1.8
23/01:00pm 11.1 5.2 9.2 88 0.9 SW 30 41 16 22 1016.3 1016.3 1.8
23/12:30pm 11.2 6.1 9.1 87 1.0 SW 26 33 14 18 1016.1 1016.1 1.8
23/12:00pm 10.7 5.2 9.1 90 0.8 SSW 28 37 15 20 1016.1 1016.1 1.8
23/11:30am 11.0 7.2 9.8 92 0.6 SW 20 28 11 15 1016.3 1016.3 1.8
23/11:00am 11.3 6.1 8.9 85 1.2 SW 26 32 14 17 1016.1 1016.1 0.6
23/10:30am 10.9 5.9 8.1 83 1.4 WSW 24 32 13 17 1016.2 1016.2 0.6
23/10:00am 11.7 7.2 8.7 82 1.5 WSW 22 30 12 16 1016.0 1016.0 0.4
23/09:30am 10.8 4.6 8.0 83 1.4 WSW 30 39 16 21 1015.9 1015.9 0.2
23/09:00am 12.4 6.5 7.5 72 2.4 WSW 28 43 15 23 1015.7 1015.7 0.0
23/08:30am 11.9 6.4 7.6 75 2.1 WSW 26 44 14 24 1015.5 1015.5 0.0
23/08:00am 11.9 5.5 6.8 71 2.4 WSW 30 37 16 20 1015.2 1015.2 0.0
23/07:30am 11.3 4.7 7.6 78 1.8 WSW 32 43 17 23 1015.1 1015.1 0.0
23/07:00am 10.9 5.2 6.8 76 1.9 WSW 26 39 14 21 1014.7 1014.7 0.0
23/06:30am 10.7 4.8 7.6 81 1.5 SW 28 39 15 21 1014.3 1014.3 0.0
23/06:00am 10.7 5.5 7.4 80 1.6 WSW 24 32 13 17 1014.0 1014.0 0.0
23/05:31am 10.8 3.4 6.6 75 2.0 WSW 35 54 19 29 1013.6 1013.6 0.0
23/05:30am 10.9 3.1 6.8 76 1.9 WSW 37 54 20 29 1013.6 1013.6 0.0
23/05:28am 11.2 3.8 6.7 74 2.1 WSW 35 54 19 29 1013.5 1013.5 0.0
23/05:00am 11.0 4.5 6.7 75 2.0 WSW 30 39 16 21 1013.2 1013.2 0.0
23/04:30am 11.0 4.0 6.7 75 2.0 WSW 33 43 18 23 1012.9 1012.9 0.0
23/04:00am 10.7 4.3 7.0 78 1.8 WSW 30 41 16 22 1012.7 1012.7 0.0
23/03:30am 10.0 3.1 7.1 82 1.4 WSW 33 44 18 24 1012.8 1012.8 0.0
23/03:20am 11.5 4.7 7.6 77 1.9 WSW 33 52 18 28 1012.5 1012.5 0.0
23/03:00am 10.9 4.5 6.8 76 1.9 WSW 30 46 16 25 1012.5 1012.5 0.0
23/02:30am 11.1 4.8 7.4 78 1.8 WSW 30 41 16 22 1012.7 1012.7 0.0
23/02:00am 11.2 5.0 7.7 79 1.7 WSW 30 44 16 24 1012.7 1012.7 0.0
23/01:30am 11.2 4.3 7.1 76 2.0 W 33 44 18 24 1012.8 1012.8 0.0
23/01:00am 10.6 5.1 7.5 81 1.5 W 26 39 14 21 1012.9 1012.9 0.0
23/12:30am 11.6 4.2 6.7 72 2.3 W 35 44 19 24 1012.9 1012.9 0.0
23/12:00am 11.5 4.6 6.6 72 2.3 W 32 44 17 24 1013.0 1013.0 0.0
 
Date/Time
CST
Temp
°C
App
Temp
°C
Dew
Point
°C
Rel
Hum
%
Delta-T
°C
Wind Press
QNH
hPa
Press
MSL
hPa
Rain since
9am
mm
Dir  Spd
km/h
Gust
km/h
Spd
kts
Gust
kts
22/11:30pm 11.5 5.2 7.2 75 2.1 W 30 41 16 22 1012.9 1012.9 0.0
22/11:00pm 11.7 5.3 7.0 73 2.2 W 30 41 16 22 1013.1 1013.1 0.0
22/10:30pm 11.7 5.3 7.0 73 2.2 W 30 43 16 23 1013.1 1013.1 0.0
22/10:00pm 11.9 5.2 7.2 73 2.3 W 32 41 17 22 1013.1 1013.1 0.0
22/09:30pm 12.2 5.5 7.5 73 2.3 W 32 43 17 23 1013.1 1013.1 0.0
22/09:00pm 12.3 6.1 7.8 74 2.2 W 30 43 16 23 1013.0 1013.0 0.0
22/08:30pm 12.3 6.1 8.0 75 2.1 W 30 43 16 23 1012.8 1012.8 0.0
22/08:00pm 12.3 5.1 7.6 73 2.3 W 35 48 19 26 1012.6 1012.6 0.0
22/07:30pm 12.1 4.9 7.6 74 2.2 W 35 46 19 25 1012.3 1012.3 0.0
22/07:00pm 12.4 5.3 8.1 75 2.1 W 35 44 19 24 1012.0 1012.0 0.0
22/06:30pm 12.4 5.7 8.1 75 2.1 W 33 44 18 24 1011.6 1011.6 0.0
22/06:00pm 12.3 6.2 8.2 76 2.0 W 30 44 16 24 1011.3 1011.3 0.0
22/05:30pm 12.9 5.5 8.4 74 2.2 W 37 48 20 26 1011.0 1011.0 0.0
22/05:00pm 12.6 6.7 9.1 79 1.8 W 30 41 16 22 1010.7 1010.7 0.0
22/04:30pm 14.0 7.1 8.8 71 2.6 W 35 44 19 24 1010.2 1010.2 0.0
22/04:00pm 13.9 7.5 9.5 75 2.3 W 33 43 18 23 1010.0 1010.0 0.0
22/03:37pm 13.0 6.8 10.2 83 1.4 W 33 52 18 28 1009.9 1009.9 0.0
22/03:30pm 12.8 5.8 8.5 75 2.1 W 35 52 19 28 1009.9 1009.9 0.0
22/03:00pm 14.6 8.1 8.8 68 2.9 WNW 33 43 18 23 1009.7 1009.7 0.0
22/02:30pm 14.2 8.2 8.6 69 2.8 WNW 30 39 16 21 1009.5 1009.5 0.0
22/02:00pm 14.9 7.4 7.9 63 3.5 W 37 50 20 27 1009.4 1009.4 0.0
22/01:30pm 14.9 7.2 8.6 66 3.2 W 39 52 21 28 1009.2 1009.2 0.0
22/01:00pm 14.9 8.1 9.1 68 3.0 W 35 46 19 25 1008.8 1008.8 0.0
22/12:30pm 14.1 6.7 8.5 69 2.8 W 37 48 20 26 1008.8 1008.8 0.0
22/12:00pm 14.9 7.3 9.1 68 3.0 W 39 54 21 29 1008.4 1008.4 0.0
22/11:50am 14.3 6.9 8.3 67 3.0 W 37 57 20 31 1008.4 1008.4 0.0
22/11:30am 14.2 5.7 8.4 68 2.9 W 43 57 23 31 1007.9 1007.9 0.0
22/11:00am 14.4 6.1 9.4 72 2.6 W 43 57 23 31 1007.4 1007.4 0.0
22/10:30am 14.2 4.9 9.2 72 2.6 W 48 61 26 33 1006.7 1006.7 0.0
22/10:05am 13.8 4.9 9.3 74 2.3 W 46 65 25 35 1006.1 1006.1 0.0
22/10:00am 13.5 5.3 9.7 78 1.9 W 43 57 23 31 1006.2 1006.2 0.0
22/09:30am 13.5 4.7 9.4 76 2.1 W 46 65 25 35 1005.8 1005.8 0.0
22/09:06am 13.6 5.9 10.0 79 1.9 WNW 41 59 22 32 1005.3 1005.3 0.0
22/09:00am 13.3 4.8 9.2 76 2.1 WNW 44 59 24 32 1005.2 1005.2 5.6
22/08:36am 13.6 6.2 9.8 78 2.0 WNW 39 59 21 32 1004.7 1004.7 5.6
22/08:30am 13.2 6.3 10.2 82 1.6 WNW 37 50 20 27 1004.6 1004.6 5.6
22/08:06am 12.6 5.2 9.8 83 1.4 WNW 39 59 21 32 1004.2 1004.2 5.6
22/08:00am 12.3 4.3 9.0 80 1.7 WNW 41 59 22 32 1004.0 1004.0 5.6
22/07:30am 12.5 3.4 8.6 77 2.0 WNW 46 69 25 37 1003.6 1003.6 5.6
22/07:04am 12.7 4.3 9.5 81 1.6 NW 44 63 24 34 1003.2 1003.2 5.6
22/07:00am 12.7 4.2 9.3 80 1.7 NW 44 63 24 34 1003.2 1003.2 5.6
22/06:30am 12.2 6.3 9.2 82 1.5 NW 30 50 16 27 1003.1 1003.1 5.6
22/06:00am 10.9 2.5 8.8 87 1.0 NW 43 70 23 38 1003.0 1003.0 5.6
22/05:30am 10.6 2.8 8.2 85 1.2 NW 39 59 21 32 1003.0 1003.0 4.6
22/05:08am 11.4 5.1 8.8 84 1.3 NW 32 56 17 30 1002.8 1002.8 4.2
22/05:00am 11.2 4.2 8.6 84 1.3 WNW 35 50 19 27 1002.8 1002.8 4.2
22/04:30am 11.4 4.6 9.1 86 1.2 NW 35 57 19 31 1002.7 1002.7 3.8
22/04:00am 11.2 4.4 9.3 88 1.0 NW 35 57 19 31 1002.6 1002.6 3.6
22/03:30am 12.0 5.5 9.0 82 1.5 NW 33 56 18 30 1002.5 1002.5 3.0
22/03:16am 12.1 4.8 8.9 81 1.6 NW 37 56 20 30 1002.6 1002.6 3.0
22/03:00am 11.9 5.4 9.1 83 1.4 NW 33 50 18 27 1002.6 1002.6 3.0
22/02:30am 11.7 4.4 8.6 81 1.5 NW 37 57 20 31 1002.8 1002.8 2.8
22/02:02am 10.4 3.0 8.5 88 0.9 NW 37 57 20 31 1003.1 1003.1 2.8
22/02:00am 10.3 2.1 8.4 88 0.9 NW 41 57 22 31 1003.2 1003.2 2.8
22/01:30am 12.2 4.7 8.1 76 2.0 NW 37 57 20 31 1003.0 1003.0 2.0
22/01:00am 12.5 5.4 8.2 75 2.1 WNW 35 57 19 31 1003.1 1003.1 2.0
22/12:36am 11.9 5.2 8.0 77 1.9 NW 33 52 18 28 1003.4 1003.4 2.0
22/12:30am 11.9 3.9 7.6 75 2.1 NW 39 57 21 31 1003.5 1003.5 2.0
22/12:02am 12.3 5.3 8.6 78 1.8 NW 35 54 19 29 1003.5 1003.5 2.0
22/12:00am 12.5 5.6 9.0 79 1.8 NW 35 52 19 28 1003.5 1003.5 2.0
 
Date/Time
CST
Temp
°C
App
Temp
°C
Dew
Point
°C
Rel
Hum
%
Delta-T
°C
Wind Press
QNH
hPa
Press
MSL
hPa
Rain since
9am
mm
Dir  Spd
km/h
Gust
km/h
Spd
kts
Gust
kts
21/11:30pm 11.8 5.2 8.5 80 1.6 NW 33 46 18 25 1003.5 1003.5 2.0
21/11:06pm 12.0 5.2 9.4 84 1.3 NW 35 70 19 38 1003.6 1003.6 2.0
21/11:05pm 12.1 5.3 9.3 83 1.4 WNW 35 70 19 38 1003.6 1003.6 2.0
21/11:03pm 12.3 6.1 9.5 83 1.4 WNW 32 54 17 29 1003.5 1003.5 2.0
21/11:00pm 11.6 5.3 8.8 83 1.4 WNW 32 46 17 25 1003.5 1003.5 2.0
21/10:30pm 12.5 6.2 8.8 78 1.9 NW 32 43 17 23 1003.5 1003.5 1.8
21/10:00pm 11.4 4.9 8.8 84 1.3 WNW 33 43 18 23 1003.8 1003.8 1.6
21/09:30pm 12.7 7.4 9.9 83 1.4 NW 28 41 15 22 1003.8 1003.8 1.4
21/09:00pm 12.1 6.7 9.5 84 1.3 NW 28 39 15 21 1003.8 1003.8 1.4
21/08:38pm 12.0 6.7 9.9 87 1.1 NW 28 46 15 25 1003.8 1003.8 1.4
21/08:30pm 11.8 6.1 9.7 87 1.1 NW 30 46 16 25 1003.7 1003.7 1.4
21/08:20pm 11.9 5.6 9.1 83 1.4 NW 32 52 17 28 1003.9 1003.9 1.4

Other formats

Comma delimited format used in spreadsheet applications
http://www.bom.gov.au/fwo/IDS60801/IDS60801.94813.axf

JavaScript Object Notation format (JSON) in row-major order
http://www.bom.gov.au/fwo/IDS60801/IDS60801.94813.json

Data quality

Most of these data are generated automatically and are frequently updated. Quality checks on data are not normally performed. It is possible for incorrect values to appear. Refer to information at About Latest Weather Observations and please check the disclaimer before using these data.